createdAt,value
2023-12-04T00:00:27.872Z,-3.60
2023-12-04T00:01:28.496Z,-3.62
2023-12-04T00:02:27.616Z,-3.65
2023-12-04T00:03:27.693Z,-3.65
2023-12-04T00:04:27.753Z,-3.65
2023-12-04T00:05:27.652Z,-3.63
2023-12-04T00:06:27.673Z,-3.65
2023-12-04T00:07:27.586Z,-3.65
2023-12-04T00:08:27.609Z,-3.67
2023-12-04T00:09:27.595Z,-3.70
2023-12-04T00:10:27.607Z,-3.65
2023-12-04T00:11:29.054Z,-3.70
2023-12-04T00:12:27.585Z,-3.66
2023-12-04T00:13:27.522Z,-3.65
2023-12-04T00:14:27.529Z,-3.66
2023-12-04T00:15:27.551Z,-3.67
2023-12-04T00:16:27.505Z,-3.69
2023-12-04T00:17:27.556Z,-3.70
2023-12-04T00:18:27.526Z,-3.67
2023-12-04T00:19:27.496Z,-3.67
2023-12-04T00:20:27.507Z,-3.69
2023-12-04T00:21:27.473Z,-3.65
2023-12-04T00:22:27.440Z,-3.69
2023-12-04T00:23:27.441Z,-3.70
2023-12-04T00:24:27.448Z,-3.81
2023-12-04T00:25:27.522Z,-3.84
2023-12-04T00:26:27.419Z,-3.85
2023-12-04T00:27:27.398Z,-3.79
2023-12-04T00:28:27.402Z,-3.82
2023-12-04T00:29:27.385Z,-3.82
2023-12-04T00:30:27.387Z,-3.82
2023-12-04T00:31:27.357Z,-3.82
2023-12-04T00:32:27.377Z,-3.92
2023-12-04T00:33:27.475Z,-3.99
2023-12-04T00:34:27.517Z,-3.99
2023-12-04T00:35:27.354Z,-3.96
2023-12-04T00:36:27.348Z,-3.97
2023-12-04T00:37:27.309Z,-4.02
2023-12-04T00:38:27.311Z,-4.05
2023-12-04T00:39:27.338Z,-4.07
2023-12-04T00:40:27.308Z,-4.07
2023-12-04T00:41:27.269Z,-4.10
2023-12-04T00:42:27.270Z,-4.09
2023-12-04T00:43:27.262Z,-4.06
2023-12-04T00:44:27.275Z,-4.06
2023-12-04T00:45:27.260Z,-4.00
2023-12-04T00:46:27.233Z,-3.96
2023-12-04T00:47:27.277Z,-3.96
2023-12-04T00:48:27.309Z,-3.96
2023-12-04T00:49:27.256Z,-3.96
2023-12-04T00:50:27.230Z,-3.99
2023-12-04T00:51:27.205Z,-3.96
2023-12-04T00:52:27.177Z,-3.97
2023-12-04T00:53:27.162Z,-4.00
2023-12-04T00:54:27.170Z,-3.94
2023-12-04T00:55:27.159Z,-3.92
2023-12-04T00:56:27.162Z,-3.94
2023-12-04T00:57:27.133Z,-3.92
2023-12-04T00:58:27.133Z,-3.91
2023-12-04T00:59:27.111Z,-4.00
2023-12-04T01:00:27.118Z,-4.06
2023-12-04T01:01:27.100Z,-4.10
2023-12-04T01:02:27.089Z,-4.12
2023-12-04T01:03:27.072Z,-4.12
2023-12-04T01:04:27.079Z,-4.18
2023-12-04T01:05:27.070Z,-4.20
2023-12-04T01:06:27.062Z,-4.21
2023-12-04T01:07:27.027Z,-4.17
2023-12-04T01:08:27.068Z,-4.14
2023-12-04T01:09:27.020Z,-4.09
2023-12-04T01:10:27.041Z,-4.03
2023-12-04T01:11:27.022Z,-4.00
2023-12-04T01:12:27.016Z,-4.05
2023-12-04T01:13:26.985Z,-4.07
2023-12-04T01:14:26.996Z,-4.10
2023-12-04T01:15:26.972Z,-4.15
2023-12-04T01:16:27.023Z,-4.15
2023-12-04T01:17:27.042Z,-4.10
2023-12-04T01:18:27.034Z,-4.07
2023-12-04T01:19:26.943Z,-4.18
2023-12-04T01:20:27.000Z,-4.28
2023-12-04T01:21:26.950Z,-4.36
2023-12-04T01:22:26.914Z,-4.45
2023-12-04T01:23:26.925Z,-4.49
2023-12-04T01:24:26.889Z,-4.53
2023-12-04T01:25:26.899Z,-4.53
2023-12-04T01:26:26.884Z,-4.52
2023-12-04T01:27:26.867Z,-4.52
2023-12-04T01:28:26.862Z,-4.48
2023-12-04T01:29:26.858Z,-4.49
2023-12-04T01:30:26.857Z,-4.52
2023-12-04T01:31:26.838Z,-4.53
2023-12-04T01:32:26.943Z,-4.57
2023-12-04T01:33:26.826Z,-4.54
2023-12-04T01:34:26.884Z,-4.49
2023-12-04T01:35:26.801Z,-4.48
2023-12-04T01:36:26.808Z,-4.44
2023-12-04T01:37:26.777Z,-4.42
2023-12-04T01:38:26.792Z,-4.46
2023-12-04T01:39:26.755Z,-4.48
2023-12-04T01:40:26.776Z,-4.48
2023-12-04T01:41:26.735Z,-4.45
2023-12-04T01:42:26.735Z,-4.45
2023-12-04T01:43:26.720Z,-4.38
2023-12-04T01:44:26.762Z,-4.34
2023-12-04T01:45:26.747Z,-4.34
2023-12-04T01:46:26.722Z,-4.28
2023-12-04T01:47:26.761Z,-4.27
2023-12-04T01:48:26.754Z,-4.27
2023-12-04T01:49:26.714Z,-4.36
2023-12-04T01:50:26.696Z,-4.42
2023-12-04T01:51:26.664Z,-4.46
2023-12-04T01:52:26.652Z,-4.48
2023-12-04T01:53:26.651Z,-4.48
2023-12-04T01:54:26.630Z,-4.52
2023-12-04T01:55:26.625Z,-4.48
2023-12-04T01:56:26.631Z,-4.49
2023-12-04T01:57:26.599Z,-4.46
2023-12-04T01:58:26.627Z,-4.44
2023-12-04T01:59:26.620Z,-4.46
2023-12-04T02:00:26.612Z,-4.49
2023-12-04T02:01:26.576Z,-4.53
2023-12-04T02:02:26.557Z,-4.49
2023-12-04T02:03:26.611Z,-4.46
2023-12-04T02:04:26.592Z,-4.46
2023-12-04T02:05:26.533Z,-4.49
2023-12-04T02:06:26.556Z,-4.48
2023-12-04T02:07:26.517Z,-4.48
2023-12-04T02:08:26.536Z,-4.46
2023-12-04T02:09:26.493Z,-4.45
2023-12-04T02:10:26.525Z,-4.48
2023-12-04T02:11:26.469Z,-4.46
2023-12-04T02:12:26.473Z,-4.42
2023-12-04T02:13:26.463Z,-4.44
2023-12-04T02:14:32.501Z,-4.45
2023-12-04T02:15:27.124Z,-4.44
2023-12-04T02:16:26.443Z,-4.54
2023-12-04T02:17:26.453Z,-4.59
2023-12-04T02:18:26.444Z,-4.57
2023-12-04T02:19:26.454Z,-4.60
2023-12-04T02:20:26.426Z,-4.59
2023-12-04T02:21:26.410Z,-4.64
2023-12-04T02:22:26.392Z,-4.67
2023-12-04T02:23:26.371Z,-4.66
2023-12-04T02:24:26.438Z,-4.62
2023-12-04T02:25:35.159Z,-4.52
2023-12-04T02:26:26.364Z,-4.53
2023-12-04T02:27:26.406Z,-4.53
2023-12-04T02:28:26.333Z,-4.53
2023-12-04T02:29:26.318Z,-4.62
2023-12-04T02:30:26.349Z,-4.75
2023-12-04T02:31:26.308Z,-4.84
2023-12-04T02:32:26.301Z,-4.92
2023-12-04T02:33:26.333Z,-4.96
2023-12-04T02:34:26.347Z,-4.95
2023-12-04T02:35:26.287Z,-4.99
2023-12-04T02:36:26.266Z,-4.99
2023-12-04T02:37:26.251Z,-5.03
2023-12-04T02:38:26.261Z,-4.99
2023-12-04T02:39:26.232Z,-4.96
2023-12-04T02:40:26.232Z,-4.87
2023-12-04T02:41:26.237Z,-4.84
2023-12-04T02:42:26.207Z,-4.77
2023-12-04T02:43:26.186Z,-4.77
2023-12-04T02:44:26.203Z,-4.77
2023-12-04T02:45:26.199Z,-4.75
2023-12-04T02:46:26.176Z,-4.70
2023-12-04T02:47:26.239Z,-4.66
2023-12-04T02:48:26.207Z,-4.67
2023-12-04T02:49:26.192Z,-4.75
2023-12-04T02:50:26.170Z,-4.77
2023-12-04T02:51:26.121Z,-4.77
2023-12-04T02:52:26.150Z,-4.75
2023-12-04T02:53:26.133Z,-4.78
2023-12-04T02:54:26.103Z,-4.91
2023-12-04T02:55:26.120Z,-4.96
2023-12-04T02:56:26.090Z,-4.98
2023-12-04T02:57:26.070Z,-4.98
2023-12-04T02:58:26.068Z,-4.95
2023-12-04T02:59:26.056Z,-4.95
2023-12-04T03:00:26.064Z,-4.91
2023-12-04T03:01:26.057Z,-4.84
2023-12-04T03:02:26.035Z,-4.78
2023-12-04T03:03:26.106Z,-4.75
2023-12-04T03:04:26.080Z,-4.67
2023-12-04T03:05:26.007Z,-4.64
2023-12-04T03:06:26.036Z,-4.63
2023-12-04T03:07:25.971Z,-4.60
2023-12-04T03:08:26.036Z,-4.75
2023-12-04T03:09:47.515Z,-4.98
2023-12-04T03:10:26.026Z,-5.18
2023-12-04T03:11:25.949Z,-5.20
2023-12-04T03:12:25.961Z,-5.20
2023-12-04T03:13:25.922Z,-5.17
2023-12-04T03:14:25.935Z,-5.14
2023-12-04T03:15:25.932Z,-5.05
2023-12-04T03:16:25.964Z,-5.02
2023-12-04T03:17:25.915Z,-5.10
2023-12-04T03:18:25.953Z,-5.09
2023-12-04T03:19:25.963Z,-5.13
2023-12-04T03:20:25.888Z,-5.14
2023-12-04T03:21:25.852Z,-5.18
2023-12-04T03:22:25.855Z,-5.20
2023-12-04T03:23:25.851Z,-5.14
2023-12-04T03:24:25.855Z,-5.11
2023-12-04T03:25:25.843Z,-5.07
2023-12-04T03:26:25.838Z,-5.02
2023-12-04T03:27:25.796Z,-5.01
2023-12-04T03:28:25.818Z,-4.95
2023-12-04T03:29:25.796Z,-4.96
2023-12-04T03:30:25.803Z,-4.99
2023-12-04T03:31:25.779Z,-5.13
2023-12-04T03:32:25.799Z,-5.14
2023-12-04T03:33:25.780Z,-5.18
2023-12-04T03:34:25.774Z,-5.18
2023-12-04T03:35:25.755Z,-5.14
2023-12-04T03:36:25.734Z,-5.14
2023-12-04T03:37:25.716Z,-5.07
2023-12-04T03:38:25.781Z,-5.01
2023-12-04T03:39:25.689Z,-4.93
2023-12-04T03:40:25.752Z,-4.89
2023-12-04T03:41:25.668Z,-4.85
2023-12-04T03:42:25.688Z,-4.80
2023-12-04T03:43:25.656Z,-4.77
2023-12-04T03:44:25.709Z,-4.75
2023-12-04T03:45:31.674Z,-4.77
2023-12-04T03:46:31.651Z,-4.74
2023-12-04T03:47:25.644Z,-4.75
2023-12-04T03:48:25.698Z,-4.73
2023-12-04T03:49:25.665Z,-4.71
2023-12-04T03:50:25.639Z,-4.67
2023-12-04T03:51:25.585Z,-4.67
2023-12-04T03:52:25.586Z,-4.70
2023-12-04T03:53:25.587Z,-4.73
2023-12-04T03:54:25.578Z,-4.73
2023-12-04T03:55:25.568Z,-4.71
2023-12-04T03:56:25.575Z,-4.71
2023-12-04T03:57:25.533Z,-4.75
2023-12-04T03:58:25.571Z,-4.80
2023-12-04T03:59:25.523Z,-4.78
2023-12-04T04:00:25.543Z,-4.80
2023-12-04T04:01:25.573Z,-4.74
2023-12-04T04:02:25.509Z,-4.74
2023-12-04T04:03:25.564Z,-4.64
2023-12-04T04:04:25.553Z,-4.63
2023-12-04T04:05:25.474Z,-4.59
2023-12-04T04:06:25.502Z,-4.52
2023-12-04T04:07:25.569Z,-4.48
2023-12-04T04:08:25.456Z,-4.44
2023-12-04T04:09:25.435Z,-4.44
2023-12-04T04:10:25.453Z,-4.42
2023-12-04T04:11:25.437Z,-4.44
2023-12-04T04:12:25.432Z,-4.48
2023-12-04T04:13:25.461Z,-4.45
2023-12-04T04:14:25.465Z,-4.53
2023-12-04T04:15:25.412Z,-4.49
2023-12-04T04:16:25.409Z,-4.53
2023-12-04T04:17:25.378Z,-4.46
2023-12-04T04:18:25.464Z,-4.52
2023-12-04T04:19:25.357Z,-4.46
2023-12-04T04:20:25.365Z,-4.57
2023-12-04T04:21:25.331Z,-4.52
2023-12-04T04:22:25.318Z,-4.56
2023-12-04T04:23:25.325Z,-4.56
2023-12-04T04:24:25.301Z,-4.54
2023-12-04T04:25:25.342Z,-4.49
2023-12-04T04:26:25.294Z,-4.44
2023-12-04T04:27:25.287Z,-4.42
2023-12-04T04:28:25.263Z,-4.42
2023-12-04T04:29:25.299Z,-4.46
2023-12-04T04:30:25.245Z,-4.46
2023-12-04T04:31:25.266Z,-4.45
2023-12-04T04:32:25.229Z,-4.48
2023-12-04T04:33:25.880Z,-4.49
2023-12-04T04:34:25.999Z,-4.54
2023-12-04T04:35:25.897Z,-4.56
2023-12-04T04:36:25.881Z,-4.49
2023-12-04T04:37:25.195Z,-4.44
2023-12-04T04:38:25.177Z,-4.45
2023-12-04T04:39:25.177Z,-4.42
2023-12-04T04:40:25.173Z,-4.42
2023-12-04T04:41:25.888Z,-4.39
2023-12-04T04:42:25.153Z,-4.38
2023-12-04T04:43:25.888Z,-4.53
2023-12-04T04:44:27.865Z,-4.59
2023-12-04T04:45:25.158Z,-4.59
2023-12-04T04:46:25.106Z,-4.59
2023-12-04T04:47:25.113Z,-4.54
2023-12-04T04:48:25.116Z,-4.53
2023-12-04T04:49:25.725Z,-4.57
2023-12-04T04:50:25.109Z,-4.54
2023-12-04T04:51:25.097Z,-4.53
2023-12-04T04:52:25.079Z,-4.49
2023-12-04T04:53:25.067Z,-4.45
2023-12-04T04:54:25.122Z,-4.39
2023-12-04T04:55:46.505Z,-4.34
2023-12-04T04:56:25.019Z,-4.39
2023-12-04T04:57:25.018Z,-4.44
2023-12-04T04:58:32.594Z,-4.53
2023-12-04T04:59:31.057Z,-4.53
2023-12-04T05:00:30.986Z,-4.56
2023-12-04T05:01:24.969Z,-4.56
2023-12-04T05:02:25.675Z,-4.54
2023-12-04T05:03:25.464Z,-4.52
2023-12-04T05:04:25.064Z,-4.46
2023-12-04T05:05:24.965Z,-4.46
2023-12-04T05:06:25.685Z,-4.49
2023-12-04T05:07:24.951Z,-4.46
2023-12-04T05:08:24.931Z,-4.53
2023-12-04T05:09:24.935Z,-4.53
2023-12-04T05:10:24.973Z,-4.56
2023-12-04T05:11:24.996Z,-4.66
2023-12-04T05:12:24.890Z,-4.66
2023-12-04T05:13:24.965Z,-4.67
2023-12-04T05:14:24.875Z,-4.64
2023-12-04T05:15:24.888Z,-4.63
2023-12-04T05:16:25.650Z,-4.60
2023-12-04T05:17:24.872Z,-4.67
2023-12-04T05:18:24.879Z,-4.74
2023-12-04T05:19:24.916Z,-4.75
2023-12-04T05:20:24.847Z,-4.73
2023-12-04T05:21:24.815Z,-4.71
2023-12-04T05:22:24.779Z,-4.64
2023-12-04T05:23:24.801Z,-4.62
2023-12-04T05:24:24.793Z,-4.54
2023-12-04T05:25:27.431Z,-4.56
2023-12-04T05:26:24.775Z,-4.53
2023-12-04T05:27:25.662Z,-4.57
2023-12-04T05:28:24.795Z,-4.56
2023-12-04T05:29:24.728Z,-4.54
2023-12-04T05:30:24.752Z,-4.52
2023-12-04T05:31:24.715Z,-4.52
2023-12-04T05:32:24.720Z,-4.52
2023-12-04T05:33:24.845Z,-4.56
2023-12-04T05:34:24.760Z,-4.56
2023-12-04T05:35:24.727Z,-4.54
2023-12-04T05:36:24.659Z,-4.54
2023-12-04T05:37:24.689Z,-4.53
2023-12-04T05:38:24.643Z,-4.49
2023-12-04T05:39:24.651Z,-4.48
2023-12-04T05:40:24.671Z,-4.48
2023-12-04T05:41:24.653Z,-4.48
2023-12-04T05:42:24.630Z,-4.48
2023-12-04T05:43:24.700Z,-4.48
2023-12-04T05:44:24.606Z,-4.53
2023-12-04T05:45:24.629Z,-4.52
2023-12-04T05:46:24.665Z,-4.57
2023-12-04T05:47:25.223Z,-4.63
2023-12-04T05:48:24.562Z,-4.70
2023-12-04T05:49:24.675Z,-4.73
2023-12-04T05:50:24.561Z,-4.73
2023-12-04T05:51:24.566Z,-4.73
2023-12-04T05:52:24.521Z,-4.78
2023-12-04T05:53:24.513Z,-4.71
2023-12-04T05:54:25.152Z,-4.71
2023-12-04T05:55:24.543Z,-4.66
2023-12-04T05:56:24.491Z,-4.59
2023-12-04T05:57:24.516Z,-4.59
2023-12-04T05:58:24.450Z,-4.59
2023-12-04T05:59:24.450Z,-4.57
2023-12-04T06:00:27.562Z,-4.52
2023-12-04T06:01:24.453Z,-4.57
2023-12-04T06:02:24.518Z,-4.57
2023-12-04T06:03:24.551Z,-4.57
2023-12-04T06:04:24.412Z,-4.56
2023-12-04T06:05:24.667Z,-4.57
2023-12-04T06:06:24.421Z,-4.60
2023-12-04T06:07:24.431Z,-4.56
2023-12-04T06:08:25.177Z,-4.54
2023-12-04T06:09:24.404Z,-4.52
2023-12-04T06:10:24.391Z,-4.45
2023-12-04T06:11:24.362Z,-4.45
2023-12-04T06:12:24.387Z,-4.41
2023-12-04T06:13:24.375Z,-4.35
2023-12-04T06:14:24.417Z,-4.30
2023-12-04T06:15:24.369Z,-4.31
2023-12-04T06:16:24.341Z,-4.30
2023-12-04T06:17:24.354Z,-4.30
2023-12-04T06:18:26.445Z,-4.38
2023-12-04T06:19:24.434Z,-4.36
2023-12-04T06:20:24.321Z,-4.38
2023-12-04T06:21:24.318Z,-4.31
2023-12-04T06:22:24.272Z,-4.28
2023-12-04T06:23:24.290Z,-4.24
2023-12-04T06:24:24.247Z,-4.23
2023-12-04T06:25:24.276Z,-4.18
2023-12-04T06:26:24.241Z,-4.18
2023-12-04T06:27:24.243Z,-4.15
2023-12-04T06:28:24.203Z,-4.12
2023-12-04T06:29:24.227Z,-4.07
2023-12-04T06:30:24.235Z,-4.03
2023-12-04T06:31:24.210Z,-3.94
2023-12-04T06:32:24.203Z,-3.92
2023-12-04T06:33:24.206Z,-3.94
2023-12-04T06:34:24.214Z,-3.92
2023-12-04T06:35:24.152Z,-3.88
2023-12-04T06:36:24.148Z,-3.84
2023-12-04T06:37:24.199Z,-3.81
2023-12-04T06:38:24.108Z,-3.74
2023-12-04T06:39:24.091Z,-3.70
2023-12-04T06:40:24.096Z,-3.65
2023-12-04T06:41:24.098Z,-3.65
2023-12-04T06:42:24.074Z,-3.66
2023-12-04T06:43:24.187Z,-3.63
2023-12-04T06:44:24.050Z,-3.62
2023-12-04T06:45:24.088Z,-3.57
2023-12-04T06:46:24.038Z,-3.57
2023-12-04T06:47:24.094Z,-3.52
2023-12-04T06:48:24.081Z,-3.49
2023-12-04T06:49:24.179Z,-3.44
2023-12-04T06:50:24.017Z,-3.45
2023-12-04T06:51:24.034Z,-3.42
2023-12-04T06:52:23.981Z,-3.42
2023-12-04T06:53:23.996Z,-3.41
2023-12-04T06:54:23.998Z,-3.34
2023-12-04T06:55:24.015Z,-3.31
2023-12-04T06:56:23.991Z,-3.31
2023-12-04T06:57:23.999Z,-3.30
2023-12-04T06:58:23.982Z,-3.29
2023-12-04T06:59:23.970Z,-3.26
2023-12-04T07:00:24.012Z,-3.21
2023-12-04T07:01:23.916Z,-3.23
2023-12-04T07:02:23.894Z,-3.20
2023-12-04T07:03:24.030Z,-3.20
2023-12-04T07:04:23.955Z,-3.16
2023-12-04T07:05:23.955Z,-3.16
2023-12-04T07:06:23.882Z,-3.15
2023-12-04T07:07:23.863Z,-3.13
2023-12-04T07:08:23.849Z,-3.12
2023-12-04T07:09:23.923Z,-3.09
2023-12-04T07:10:23.911Z,-3.09
2023-12-04T07:11:23.852Z,-3.08
2023-12-04T07:12:23.814Z,-3.15
2023-12-04T07:13:23.801Z,-3.16
2023-12-04T07:14:23.838Z,-3.20
2023-12-04T07:15:23.843Z,-3.16
2023-12-04T07:16:23.820Z,-3.13
2023-12-04T07:17:23.804Z,-3.18
2023-12-04T07:18:23.856Z,-3.21
2023-12-04T07:19:24.799Z,-3.21
2023-12-04T07:20:23.756Z,-3.20
2023-12-04T07:21:23.826Z,-3.23
2023-12-04T07:22:23.732Z,-3.20
2023-12-04T07:23:27.265Z,-3.18
2023-12-04T07:24:23.726Z,-3.20
2023-12-04T07:25:23.724Z,-3.16
2023-12-04T07:26:23.692Z,-3.13
2023-12-04T07:27:24.721Z,-3.09
2023-12-04T07:28:23.784Z,-3.09
2023-12-04T07:29:23.786Z,-3.08
2023-12-04T07:30:23.716Z,-3.05
2023-12-04T07:31:23.730Z,-3.13
2023-12-04T07:32:23.691Z,-3.13
2023-12-04T07:33:23.772Z,-3.12
2023-12-04T07:34:23.704Z,-3.10
2023-12-04T07:35:24.194Z,-3.15
2023-12-04T07:36:23.653Z,-3.13
2023-12-04T07:37:23.648Z,-3.06
2023-12-04T07:38:25.702Z,-3.06
2023-12-04T07:39:23.579Z,-3.06
2023-12-04T07:40:23.598Z,-3.01
2023-12-04T07:41:24.729Z,-2.92
2023-12-04T07:42:23.548Z,-2.91
2023-12-04T07:43:23.628Z,-2.87
2023-12-04T07:44:23.807Z,-2.87
2023-12-04T07:45:23.573Z,-2.85
2023-12-04T07:46:23.569Z,-2.88
2023-12-04T07:47:24.905Z,-2.94
2023-12-04T07:48:23.560Z,-2.88
2023-12-04T07:49:23.605Z,-2.90
2023-12-04T07:50:23.526Z,-2.88
2023-12-04T07:51:23.493Z,-2.82
2023-12-04T07:52:23.486Z,-2.82
2023-12-04T07:53:23.506Z,-2.87
2023-12-04T07:54:23.422Z,-2.80
2023-12-04T07:55:23.467Z,-2.79
2023-12-04T07:56:23.454Z,-2.73
2023-12-04T07:57:23.400Z,-2.73
2023-12-04T07:58:24.172Z,-2.74
2023-12-04T07:59:23.400Z,-2.67
2023-12-04T08:00:23.387Z,-2.70
2023-12-04T08:01:23.518Z,-2.73
2023-12-04T08:02:23.409Z,-2.72
2023-12-04T08:03:23.364Z,-2.66
2023-12-04T08:04:29.411Z,-2.64
2023-12-04T08:05:23.359Z,-2.61
2023-12-04T08:06:23.371Z,-2.59
2023-12-04T08:07:23.433Z,-2.56
2023-12-04T08:08:23.318Z,-2.61
2023-12-04T08:09:24.193Z,-2.63
2023-12-04T08:10:24.343Z,-2.66
2023-12-04T08:11:23.320Z,-2.67
2023-12-04T08:12:23.319Z,-2.69
2023-12-04T08:13:23.324Z,-2.64
2023-12-04T08:14:23.284Z,-2.61
2023-12-04T08:15:23.320Z,-2.56
2023-12-04T08:16:23.261Z,-2.49
2023-12-04T08:17:23.236Z,-2.46
2023-12-04T08:18:24.215Z,-2.38
2023-12-04T08:19:23.351Z,-2.33
2023-12-04T08:20:30.422Z,-2.26
2023-12-04T08:21:24.190Z,-2.26
2023-12-04T08:22:23.332Z,-2.22
2023-12-04T08:23:23.291Z,-2.15
2023-12-04T08:24:23.203Z,-2.15
2023-12-04T08:25:23.202Z,-2.08
2023-12-04T08:26:23.190Z,-2.03
2023-12-04T08:27:23.173Z,-2.00
2023-12-04T08:28:23.214Z,-1.98
2023-12-04T08:29:23.173Z,-1.98
2023-12-04T08:30:23.162Z,-1.94
2023-12-04T08:31:23.700Z,-1.94
2023-12-04T08:32:23.247Z,-1.86
2023-12-04T08:33:23.198Z,-1.78
2023-12-04T08:34:23.129Z,-1.70
2023-12-04T08:35:23.166Z,-1.72
2023-12-04T08:36:23.128Z,-1.67
2023-12-04T08:37:23.115Z,-1.64
2023-12-04T08:38:23.114Z,-1.61
2023-12-04T08:39:23.095Z,-1.58
2023-12-04T08:40:23.089Z,-1.57
2023-12-04T08:41:23.033Z,-1.55
2023-12-04T08:42:24.064Z,-1.54
2023-12-04T08:43:23.028Z,-1.58
2023-12-04T08:44:23.054Z,-1.57
2023-12-04T08:45:23.688Z,-1.59
2023-12-04T08:46:23.090Z,-1.57
2023-12-04T08:47:22.978Z,-1.55
2023-12-04T08:48:23.054Z,-1.47
2023-12-04T08:49:24.374Z,-1.44
2023-12-04T08:50:22.984Z,-1.39
2023-12-04T08:51:22.973Z,-1.37
2023-12-04T08:52:23.001Z,-1.36
2023-12-04T08:53:22.909Z,-1.33
2023-12-04T08:54:22.919Z,-1.25
2023-12-04T08:55:23.069Z,-1.23
2023-12-04T08:56:28.883Z,-1.23
2023-12-04T08:57:22.929Z,-1.22
2023-12-04T08:58:22.940Z,-1.21
2023-12-04T08:59:22.935Z,-1.15
2023-12-04T09:00:22.879Z,-1.11
2023-12-04T09:01:22.977Z,-1.04
2023-12-04T09:02:22.887Z,-0.97
2023-12-04T09:03:29.548Z,-1.00
2023-12-04T09:04:22.988Z,-0.95
2023-12-04T09:05:23.031Z,-0.98
2023-12-04T09:08:02.896Z,-0.97
2023-12-04T09:08:39.306Z,-0.97
2023-12-04T09:09:03.182Z,-0.97
2023-12-04T09:09:55.255Z,-0.94
2023-12-04T09:11:04.234Z,-0.94
2023-12-04T09:11:55.194Z,-1.08
2023-12-04T09:12:55.202Z,-1.11
2023-12-04T09:13:55.201Z,-1.11
2023-12-04T09:14:55.255Z,-1.10
2023-12-04T09:15:55.239Z,-1.03
2023-12-04T09:16:55.165Z,-1.05
2023-12-04T09:17:55.183Z,-1.03
2023-12-04T09:18:55.291Z,-1.03
2023-12-04T09:19:55.275Z,-1.01
2023-12-04T09:20:55.186Z,-1.04
2023-12-04T09:22:03.046Z,-1.01
2023-12-04T09:23:00.789Z,-1.03
2023-12-04T09:23:55.081Z,-1.04
2023-12-04T09:24:55.090Z,-1.07
2023-12-04T09:25:55.068Z,-1.10
2023-12-04T09:26:55.091Z,-1.08
2023-12-04T09:27:55.092Z,-1.05
2023-12-04T09:28:55.038Z,-1.04
2023-12-04T09:29:55.094Z,-1.01
2023-12-04T09:30:55.049Z,-1.11
2023-12-04T09:31:55.062Z,-1.19
2023-12-04T09:32:55.069Z,-1.18
2023-12-04T09:33:55.049Z,-1.15
2023-12-04T09:34:54.995Z,-1.07
2023-12-04T09:35:55.017Z,-1.01
2023-12-04T09:36:57.715Z,-0.98
2023-12-04T09:37:54.956Z,-0.97
2023-12-04T09:38:54.952Z,-0.97
2023-12-04T09:39:54.951Z,-0.92
2023-12-04T09:40:54.936Z,-0.85
2023-12-04T09:41:54.906Z,-0.90
2023-12-04T09:42:54.956Z,-0.85
2023-12-04T09:43:54.893Z,-0.82
2023-12-04T09:44:54.905Z,-0.84
2023-12-04T09:45:54.884Z,-0.86
2023-12-04T09:46:54.884Z,-0.92
2023-12-04T09:47:55.004Z,-0.90
2023-12-04T09:48:55.078Z,-0.82
2023-12-04T09:49:55.144Z,-0.85
2023-12-04T09:50:55.668Z,-0.86
2023-12-04T09:51:54.847Z,-0.81
2023-12-04T09:52:54.815Z,-0.76
2023-12-04T09:53:54.796Z,-0.71
2023-12-04T09:54:54.815Z,-0.68
2023-12-04T09:55:54.802Z,-0.68
2023-12-04T09:56:54.824Z,-0.66
2023-12-04T09:57:54.773Z,-0.64
2023-12-04T09:58:54.768Z,-0.55
2023-12-04T09:59:54.786Z,-0.57
2023-12-04T10:00:54.795Z,-0.52
2023-12-04T10:01:54.862Z,-0.46
2023-12-04T10:02:54.823Z,-0.43
2023-12-04T10:03:54.742Z,-0.34
2023-12-04T10:04:54.791Z,-0.34
2023-12-04T10:05:54.708Z,-0.34
2023-12-04T10:06:56.615Z,-0.47
2023-12-04T10:07:54.676Z,-0.49
2023-12-04T10:08:54.710Z,-0.46
2023-12-04T10:09:54.671Z,-0.45
2023-12-04T10:10:54.680Z,-0.45
2023-12-04T10:11:54.645Z,-0.40
2023-12-04T10:12:54.673Z,-0.40
2023-12-04T10:13:59.141Z,-0.42
2023-12-04T10:14:54.628Z,-0.39
2023-12-04T10:15:54.593Z,-0.34
2023-12-04T10:16:54.616Z,-0.29
2023-12-04T10:17:54.589Z,-0.25
2023-12-04T10:18:54.655Z,-0.24
2023-12-04T10:19:54.581Z,-0.21
2023-12-04T10:20:54.581Z,-0.14
2023-12-04T10:21:54.639Z,-0.09
2023-12-04T10:22:54.536Z,-0.09
2023-12-04T10:23:54.519Z,-0.07
2023-12-04T10:24:54.525Z,-0.07
2023-12-04T10:25:54.585Z,-0.07
2023-12-04T10:26:54.543Z,-0.06
2023-12-04T10:27:54.528Z,-0.10
2023-12-04T10:28:54.498Z,-0.10
2023-12-04T10:29:54.488Z,-0.09
2023-12-04T10:30:54.520Z,-0.06
2023-12-04T10:31:54.491Z,-0.01
2023-12-04T10:32:54.564Z,0.00
2023-12-04T10:33:54.546Z,0.07
2023-12-04T10:34:54.446Z,0.11
2023-12-04T10:35:54.418Z,0.12
2023-12-04T10:36:54.456Z,0.18
2023-12-04T10:37:54.402Z,0.17
2023-12-04T10:38:54.401Z,0.15
2023-12-04T10:39:54.384Z,0.11
2023-12-04T10:40:54.376Z,0.11
2023-12-04T10:41:54.397Z,0.09
2023-12-04T10:42:54.380Z,0.11
2023-12-04T10:43:57.657Z,0.15
2023-12-04T10:44:54.352Z,0.18
2023-12-04T10:45:54.335Z,0.20
2023-12-04T10:46:54.336Z,0.17
2023-12-04T10:47:54.342Z,0.09
2023-12-04T10:48:54.328Z,0.12
2023-12-04T10:49:54.397Z,0.08
2023-12-04T10:50:54.441Z,0.02
2023-12-04T10:51:54.309Z,0.00
2023-12-04T10:52:54.276Z,0.05
2023-12-04T10:53:54.315Z,0.11
2023-12-04T10:54:54.299Z,0.12
2023-12-04T10:55:54.232Z,0.15
2023-12-04T10:56:54.260Z,0.18
2023-12-04T10:57:54.224Z,0.15
2023-12-04T10:58:54.215Z,0.20
2023-12-04T10:59:54.192Z,0.23
2023-12-04T11:00:54.247Z,0.23
2023-12-04T11:01:54.252Z,0.26
2023-12-04T11:02:54.308Z,0.33
2023-12-04T11:03:54.254Z,0.36
2023-12-04T11:04:54.182Z,0.32
2023-12-04T11:05:54.159Z,0.32
2023-12-04T11:06:54.156Z,0.29
2023-12-04T11:08:13.972Z,0.30
2023-12-04T11:08:54.133Z,0.32
2023-12-04T11:09:54.099Z,0.25
2023-12-04T11:10:54.103Z,0.26
2023-12-04T11:11:54.141Z,0.27
2023-12-04T11:12:54.145Z,0.25
2023-12-04T11:13:54.063Z,0.27
2023-12-04T11:14:54.062Z,0.29
2023-12-04T11:15:54.050Z,0.27
2023-12-04T11:16:54.079Z,0.27
2023-12-04T11:17:54.076Z,0.26
2023-12-04T11:18:54.079Z,0.29
2023-12-04T11:19:54.068Z,0.30
2023-12-04T11:20:54.054Z,0.40
2023-12-04T11:21:54.002Z,0.40
2023-12-04T11:22:53.995Z,0.40
2023-12-04T11:23:53.981Z,0.37
2023-12-04T11:24:53.979Z,0.37
2023-12-04T11:25:53.954Z,0.40
2023-12-04T11:26:53.966Z,0.43
2023-12-04T11:27:53.950Z,0.41
2023-12-04T11:28:53.936Z,0.47
2023-12-04T11:29:53.935Z,0.44
2023-12-04T11:30:53.966Z,0.47
2023-12-04T11:31:53.941Z,0.35
2023-12-04T11:32:53.908Z,0.33
2023-12-04T11:33:53.978Z,0.29
2023-12-04T11:34:53.876Z,0.32
2023-12-04T11:35:53.879Z,0.37
2023-12-04T11:36:53.892Z,0.43
2023-12-04T11:37:53.851Z,0.48
2023-12-04T11:38:53.851Z,0.51
2023-12-04T11:39:53.862Z,0.51
2023-12-04T11:40:53.812Z,0.53
2023-12-04T11:41:53.820Z,0.60
2023-12-04T11:42:53.806Z,0.62
2023-12-04T11:43:54.023Z,0.69
2023-12-04T11:44:53.789Z,0.72
2023-12-04T11:45:53.771Z,0.73
2023-12-04T11:46:53.833Z,0.73
2023-12-04T11:47:53.915Z,0.70
2023-12-04T11:48:53.830Z,0.69
2023-12-04T11:49:53.789Z,0.70
2023-12-04T11:50:53.739Z,0.64
2023-12-04T11:51:53.802Z,0.73
2023-12-04T11:52:53.748Z,0.76
2023-12-04T11:53:53.723Z,0.72
2023-12-04T11:54:53.715Z,0.73
2023-12-04T11:55:53.755Z,0.76
2023-12-04T11:56:53.698Z,0.70
2023-12-04T11:57:53.700Z,0.81
2023-12-04T11:58:53.664Z,0.82
2023-12-04T11:59:53.682Z,0.84
2023-12-04T12:00:53.768Z,0.90
2023-12-04T12:01:53.720Z,0.98
2023-12-04T12:03:15.551Z,1.03
2023-12-04T12:03:53.818Z,1.09
2023-12-04T12:04:53.891Z,0.91
2023-12-04T12:05:54.493Z,0.88
2023-12-04T12:06:53.676Z,0.91
2023-12-04T12:07:53.662Z,0.92
2023-12-04T12:08:53.593Z,0.88
2023-12-04T12:09:53.565Z,0.85
2023-12-04T12:10:53.742Z,0.90
2023-12-04T12:11:53.548Z,0.90
2023-12-04T12:12:53.530Z,0.91
2023-12-04T12:13:53.515Z,0.87
2023-12-04T12:14:53.534Z,0.84
2023-12-04T12:15:53.540Z,0.91
2023-12-04T12:16:53.518Z,0.88
2023-12-04T12:17:53.581Z,0.85
2023-12-04T12:18:53.617Z,0.90
2023-12-04T12:19:53.470Z,0.91
2023-12-04T12:20:53.483Z,0.94
2023-12-04T12:21:53.450Z,0.98
2023-12-04T12:22:53.539Z,0.98
2023-12-04T12:23:53.418Z,0.94
2023-12-04T12:24:53.430Z,0.94
2023-12-04T12:25:53.435Z,0.94
2023-12-04T12:26:53.419Z,0.94
2023-12-04T12:27:53.450Z,0.96
2023-12-04T12:28:53.376Z,0.91
2023-12-04T12:29:53.386Z,0.88
2023-12-04T12:30:53.360Z,0.91
2023-12-04T12:31:53.355Z,0.91
2023-12-04T12:32:53.580Z,0.98
2023-12-04T12:33:53.488Z,1.02
2023-12-04T12:34:53.408Z,1.08
2023-12-04T12:36:00.203Z,1.12
2023-12-04T12:36:53.332Z,1.06
2023-12-04T12:37:54.062Z,0.88
2023-12-04T12:38:53.285Z,0.87
2023-12-04T12:39:53.272Z,0.84
2023-12-04T12:40:53.279Z,0.78
2023-12-04T12:41:53.315Z,0.66
2023-12-04T12:42:53.293Z,0.69
2023-12-04T12:43:53.282Z,0.70
2023-12-04T12:44:53.222Z,0.74
2023-12-04T12:45:53.253Z,0.80
2023-12-04T12:46:53.253Z,0.82
2023-12-04T12:47:53.308Z,0.85
2023-12-04T12:48:53.298Z,0.87
2023-12-04T12:49:53.249Z,0.88
2023-12-04T12:50:53.175Z,0.90
2023-12-04T12:53:52.611Z,0.90
2023-12-04T12:54:52.147Z,0.92
2023-12-04T12:55:52.131Z,0.91
2023-12-04T12:56:52.172Z,0.96
2023-12-04T12:57:52.093Z,1.02
2023-12-04T12:58:52.119Z,1.03
2023-12-04T12:59:52.102Z,1.00